Time;durP1;ratioP1;P1;durP2;ratioP2;P2;SDS_P1;SDS_P2;PMS_P1;PMS_P2;Temp;Humidity;BMP_temperature;BMP_pressure;BME280_temperature;BME280_humidity;BME280_pressure;Samples;Min_cycle;Max_cycle;Signal;HPM_P1;HPM_P2
2022/09/02 00:01:43;;;;;;;4.37;4.17;;;23.90;35.50;;;;;;6236179;22;20268;-61
2022/09/02 00:04:12;;;;;;;4.10;3.90;;;23.90;35.50;;;;;;6194090;22;20422;-58
2022/09/02 00:06:39;;;;;;;3.90;3.70;;;23.90;35.50;;;;;;6221704;22;20418;-58
2022/09/02 00:09:07;;;;;;;4.37;4.17;;;23.90;35.50;;;;;;6222342;22;20723;-57
2022/09/02 00:11:36;;;;;;;4.13;3.93;;;23.90;35.50;;;;;;6232306;22;20897;-64
2022/09/02 00:14:05;;;;;;;4.20;4.00;;;23.90;35.40;;;;;;6201372;22;20418;-62
2022/09/02 00:16:32;;;;;;;4.17;3.87;;;23.90;35.40;;;;;;6231444;22;20419;-60
2022/09/02 00:18:59;;;;;;;3.80;3.60;;;23.90;35.50;;;;;;6230261;22;20415;-65
2022/09/02 00:21:25;;;;;;;4.10;3.90;;;23.90;35.40;;;;;;6230056;22;20816;-64
2022/09/02 00:23:51;;;;;;;3.83;3.63;;;23.90;35.40;;;;;;6230349;22;20437;-62
2022/09/02 00:26:17;;;;;;;3.87;3.67;;;23.90;35.30;;;;;;6229604;22;20461;-58
2022/09/02 00:28:45;;;;;;;4.30;4.00;;;23.90;35.30;;;;;;6223416;22;20414;-58
2022/09/02 00:31:12;;;;;;;3.93;3.73;;;23.90;35.30;;;;;;6194137;22;20201;-66
2022/09/02 00:33:38;;;;;;;4.00;3.80;;;23.90;35.30;;;;;;6230909;22;20911;-58
2022/09/02 00:36:05;;;;;;;4.00;3.80;;;23.90;35.30;;;;;;6227668;22;20442;-61
2022/09/02 00:38:32;;;;;;;3.70;3.60;;;23.90;35.30;;;;;;6229730;22;20410;-58
2022/09/02 00:41:00;;;;;;;4.00;3.80;;;23.90;35.30;;;;;;6234295;22;20916;-59
2022/09/02 00:43:45;;;;;;;3.70;3.60;;;23.90;35.20;;;;;;6230410;22;20429;-59
2022/09/02 00:46:13;;;;;;;4.00;3.80;;;23.90;35.30;;;;;;6232351;22;20430;-58
2022/09/02 00:48:43;;;;;;;3.90;3.70;;;23.90;35.30;;;;;;6233178;22;20395;-59
2022/09/02 00:51:11;;;;;;;4.13;3.93;;;23.90;35.30;;;;;;6232856;22;20506;-64
2022/09/02 00:53:39;;;;;;;3.77;3.67;;;23.90;35.20;;;;;;6231492;22;21073;-59
2022/09/02 00:56:08;;;;;;;4.43;4.23;;;23.90;35.20;;;;;;6230255;22;20916;-57
2022/09/02 00:58:35;;;;;;;3.90;3.70;;;23.90;35.20;;;;;;6232834;22;20507;-61
2022/09/02 01:01:02;;;;;;;4.10;3.90;;;23.90;35.20;;;;;;6230321;22;20877;-58
2022/09/02 01:03:30;;;;;;;4.00;3.80;;;23.90;35.30;;;;;;6235336;22;20423;-58
2022/09/02 01:05:57;;;;;;;4.00;3.80;;;23.90;35.30;;;;;;6226723;22;20719;-58
2022/09/02 01:08:26;;;;;;;4.10;3.90;;;23.90;35.30;;;;;;6234680;22;20415;-59
2022/09/02 01:10:55;;;;;;;3.77;3.67;;;23.90;36.10;;;;;;6212283;22;20414;-67
2022/09/02 01:13:24;;;;;;;3.77;3.67;;;23.90;35.20;;;;;;6233724;22;21256;-66
2022/09/02 01:15:57;;;;;;;3.60;3.50;;;23.90;35.30;;;;;;6235603;22;20411;-67
2022/09/02 01:18:27;;;;;;;3.40;3.30;;;23.90;35.30;;;;;;6235125;22;20873;-66
2022/09/02 01:20:53;;;;;;;4.07;3.87;;;23.90;36.10;;;;;;6237698;22;20411;-66
2022/09/02 01:23:18;;;;;;;4.40;4.20;;;23.90;35.30;;;;;;6237955;22;20413;-66
2022/09/02 01:25:45;;;;;;;4.10;3.90;;;23.90;35.30;;;;;;6236331;22;20205;-66
2022/09/02 01:28:13;;;;;;;3.90;3.70;;;23.90;36.10;;;;;;6234729;22;20200;-65
2022/09/02 01:30:44;;;;;;;4.13;3.93;;;23.90;35.30;;;;;;6235539;22;20425;-66
2022/09/02 01:33:10;;;;;;;3.50;3.40;;;23.90;35.30;;;;;;6234714;22;20831;-66
2022/09/02 01:35:36;;;;;;;5.27;4.70;;;23.90;35.30;;;;;;6235045;22;20411;-66
2022/09/02 01:38:02;;;;;;;3.93;3.73;;;23.90;35.30;;;;;;6234460;22;20499;-66
2022/09/02 01:40:29;;;;;;;3.43;3.33;;;23.90;35.30;;;;;;6192946;22;20749;-68
2022/09/02 01:43:01;;;;;;;3.77;3.60;;;23.90;35.30;;;;;;6234394;22;20897;-67
2022/09/02 01:45:27;;;;;;;4.07;3.87;;;23.90;35.40;;;;;;6235467;22;20453;-65
2022/09/02 01:47:52;;;;;;;3.47;3.37;;;23.90;35.40;;;;;;6234526;22;20420;-66
2022/09/02 01:50:18;;;;;;;4.83;3.70;;;23.90;35.40;;;;;;6209389;22;20534;-66
2022/09/02 01:52:44;;;;;;;3.97;3.77;;;23.90;35.40;;;;;;6196345;22;20201;-68
2022/09/02 01:55:11;;;;;;;4.10;3.80;;;23.90;35.50;;;;;;6193482;23;20570;-66
2022/09/02 01:57:37;;;;;;;4.30;4.10;;;23.90;35.40;;;;;;6200969;23;20280;-66
2022/09/02 02:00:06;;;;;;;3.50;3.30;;;23.90;35.50;;;;;;6194098;23;20444;-68
2022/09/02 02:02:31;;;;;;;3.70;3.50;;;23.90;35.40;;;;;;6198193;23;20277;-67
2022/09/02 02:04:57;;;;;;;3.90;3.77;;;23.90;35.40;;;;;;6182798;22;20632;-67
2022/09/02 02:07:23;;;;;;;3.93;3.73;;;23.90;35.40;;;;;;6229927;22;20194;-68
2022/09/02 02:09:50;;;;;;;3.37;3.17;;;23.90;35.40;;;;;;6231478;22;20268;-68
2022/09/02 02:12:18;;;;;;;4.17;3.97;;;23.90;35.40;;;;;;6224131;22;20431;-66
2022/09/02 02:14:44;;;;;;;3.30;3.20;;;23.90;35.40;;;;;;6225219;22;20437;-66
2022/09/02 02:17:10;;;;;;;3.23;3.13;;;23.90;35.30;;;;;;6223167;22;20411;-68
2022/09/02 02:19:36;;;;;;;4.00;3.80;;;23.90;35.40;;;;;;6200380;22;20206;-66
2022/09/02 02:22:02;;;;;;;3.23;3.13;;;23.90;35.30;;;;;;6224514;22;20528;-68
2022/09/02 02:24:28;;;;;;;3.60;3.50;;;23.90;35.30;;;;;;6191297;23;20241;-66
2022/09/02 02:26:54;;;;;;;3.90;3.70;;;23.90;35.20;;;;;;6223947;22;20419;-66
2022/09/02 02:29:20;;;;;;;3.17;3.07;;;23.90;35.20;;;;;;6216320;22;20249;-67
2022/09/02 02:31:46;;;;;;;3.23;3.03;;;23.90;35.20;;;;;;6208131;23;20292;-66
2022/09/02 02:34:12;;;;;;;3.10;3.00;;;23.90;35.20;;;;;;6213571;22;20579;-66
2022/09/02 02:36:38;;;;;;;2.97;2.87;;;23.90;35.20;;;;;;6225192;22;20783;-66
2022/09/02 02:39:06;;;;;;;2.80;2.70;;;23.90;35.20;;;;;;6233763;23;20535;-66
2022/09/02 02:41:32;;;;;;;3.33;3.23;;;23.90;35.10;;;;;;6238242;23;20415;-67
2022/09/02 02:43:58;;;;;;;3.20;3.00;;;23.90;35.00;;;;;;6233825;22;20945;-66
2022/09/02 02:46:24;;;;;;;3.50;3.40;;;23.90;35.00;;;;;;6187570;23;20476;-67
2022/09/02 02:48:49;;;;;;;2.90;2.80;;;23.90;35.10;;;;;;6178089;23;20418;-67
2022/09/02 02:51:15;;;;;;;2.90;2.80;;;23.90;35.10;;;;;;6225273;22;20228;-66
2022/09/02 02:53:41;;;;;;;2.97;2.87;;;23.80;35.00;;;;;;6225992;22;20696;-66
2022/09/02 02:56:07;;;;;;;2.70;2.60;;;23.90;35.00;;;;;;6226110;22;20510;-67
2022/09/02 02:58:33;;;;;;;2.93;2.83;;;23.80;34.90;;;;;;6232737;22;20572;-66
2022/09/02 03:00:59;;;;;;;2.80;2.70;;;23.80;34.90;;;;;;6234544;22;20414;-66
2022/09/02 03:03:25;;;;;;;2.87;2.70;;;23.90;35.00;;;;;;6238238;22;20200;-67
2022/09/02 03:05:51;;;;;;;2.93;2.70;;;23.80;34.80;;;;;;6237555;22;20414;-67
2022/09/02 03:08:19;;;;;;;2.90;2.80;;;23.90;34.90;;;;;;6238389;22;20263;-66
2022/09/02 03:10:46;;;;;;;3.33;3.13;;;23.80;34.90;;;;;;6235425;22;20423;-66
2022/09/02 03:13:14;;;;;;;2.80;2.70;;;23.90;34.90;;;;;;6235957;22;20873;-66
2022/09/02 03:15:41;;;;;;;2.50;2.40;;;23.80;34.80;;;;;;6234671;22;20411;-68
2022/09/02 03:18:07;;;;;;;2.80;2.70;;;23.80;34.80;;;;;;6206707;22;20411;-66
2022/09/02 03:20:33;;;;;;;2.80;2.70;;;23.80;34.80;;;;;;6204917;22;20913;-66
2022/09/02 03:22:59;;;;;;;2.90;2.80;;;23.80;34.80;;;;;;6229196;22;20915;-67
2022/09/02 03:25:27;;;;;;;2.37;2.27;;;23.80;34.80;;;;;;6226368;22;20411;-67
2022/09/02 03:27:53;;;;;;;2.77;2.67;;;23.80;34.80;;;;;;6227136;22;20200;-68
2022/09/02 03:30:24;;;;;;;2.73;2.63;;;23.80;34.80;;;;;;6233296;22;20455;-67
2022/09/02 03:32:50;;;;;;;2.80;2.70;;;23.80;34.80;;;;;;6226922;22;20414;-67
2022/09/02 03:35:18;;;;;;;2.60;2.50;;;23.90;34.90;;;;;;6207453;22;20494;-67
2022/09/02 03:37:45;;;;;;;2.33;2.23;;;23.80;34.80;;;;;;6205307;23;20400;-66
2022/09/02 03:40:14;;;;;;;2.70;2.60;;;23.80;34.80;;;;;;6203106;23;20570;-66
2022/09/02 03:42:40;;;;;;;3.07;2.97;;;23.80;34.80;;;;;;6200806;23;20849;-67
2022/09/02 03:45:07;;;;;;;2.90;2.80;;;23.80;34.70;;;;;;6193640;23;20404;-66
2022/09/02 03:47:34;;;;;;;2.60;2.50;;;23.80;34.80;;;;;;6197787;23;20424;-66
2022/09/02 03:50:01;;;;;;;2.60;2.50;;;23.80;34.80;;;;;;6195482;23;20423;-66
2022/09/02 03:52:27;;;;;;;2.67;2.53;;;23.80;34.80;;;;;;6165776;23;20753;-67
2022/09/02 03:54:53;;;;;;;2.97;2.80;;;23.80;34.70;;;;;;6196723;23;20416;-67
2022/09/02 03:57:19;;;;;;;2.80;2.50;;;23.80;34.70;;;;;;6196494;23;20420;-70
2022/09/02 03:59:45;;;;;;;2.37;2.27;;;23.80;34.70;;;;;;6195379;23;20695;-66
2022/09/02 04:02:11;;;;;;;2.50;2.40;;;23.80;34.70;;;;;;6191963;23;20427;-68
2022/09/02 04:04:37;;;;;;;2.67;2.57;;;23.80;34.70;;;;;;6195621;23;21068;-68
2022/09/02 04:07:03;;;;;;;2.60;2.50;;;23.80;34.70;;;;;;6193643;23;20869;-66
2022/09/02 04:09:29;;;;;;;2.57;2.47;;;23.80;34.70;;;;;;6229944;22;20456;-66
2022/09/02 04:11:55;;;;;;;2.47;2.27;;;23.80;34.70;;;;;;6233405;22;20217;-66
2022/09/02 04:14:20;;;;;;;2.63;2.53;;;23.80;34.70;;;;;;6234897;22;20288;-66
2022/09/02 04:16:46;;;;;;;2.50;2.40;;;23.80;34.70;;;;;;6229015;22;20202;-67
2022/09/02 04:19:12;;;;;;;2.50;2.40;;;23.80;34.70;;;;;;6221318;22;20628;-65
2022/09/02 04:21:39;;;;;;;2.53;2.43;;;23.80;34.70;;;;;;6224881;22;20486;-67
2022/09/02 04:24:08;;;;;;;2.77;2.67;;;23.80;34.70;;;;;;6217475;22;20505;-66
2022/09/02 04:26:34;;;;;;;2.97;2.87;;;23.80;34.70;;;;;;6224786;22;20961;-66
2022/09/02 04:29:00;;;;;;;3.30;3.10;;;23.80;34.70;;;;;;6202963;22;20493;-65
2022/09/02 04:31:30;;;;;;;2.80;2.60;;;23.90;34.70;;;;;;6223167;22;20513;-67
2022/09/02 04:33:57;;;;;;;3.37;3.10;;;23.90;34.70;;;;;;6236966;22;20985;-66
2022/09/02 04:36:24;;;;;;;2.80;2.70;;;23.90;34.60;;;;;;6225173;22;20429;-66
2022/09/02 04:38:50;;;;;;;4.43;3.17;;;23.90;34.60;;;;;;6209045;22;20434;-68
2022/09/02 04:41:23;;;;;;;3.10;3.00;;;23.90;34.50;;;;;;6199674;22;20407;-66
2022/09/02 04:43:51;;;;;;;3.30;3.10;;;23.90;34.50;;;;;;6230923;22;20513;-65
2022/09/02 04:46:17;;;;;;;3.30;3.17;;;23.90;34.50;;;;;;6226965;22;20407;-65
2022/09/02 04:48:44;;;;;;;3.00;2.90;;;23.90;34.40;;;;;;6205118;22;20431;-65
2022/09/02 04:51:16;;;;;;;3.10;3.00;;;23.90;34.40;;;;;;6238079;22;20410;-65
2022/09/02 04:53:43;;;;;;;3.00;2.90;;;23.90;34.40;;;;;;6232845;22;20458;-67
2022/09/02 04:56:13;;;;;;;3.47;3.30;;;23.90;34.40;;;;;;6230384;23;20469;-67
2022/09/02 04:58:40;;;;;;;3.33;3.13;;;23.90;34.30;;;;;;6220545;22;20419;-67
2022/09/02 05:01:08;;;;;;;3.10;2.90;;;23.90;34.30;;;;;;6199019;22;20423;-65
2022/09/02 05:03:35;;;;;;;3.10;3.00;;;23.90;34.30;;;;;;6216398;22;21275;-65
2022/09/02 05:06:06;;;;;;;3.40;3.30;;;23.90;34.40;;;;;;6193245;23;20491;-64
2022/09/02 05:08:35;;;;;;;3.07;2.97;;;23.90;34.30;;;;;;6197506;23;20511;-64
2022/09/02 05:11:08;;;;;;;3.40;3.20;;;23.90;34.30;;;;;;6201555;23;20432;-65
2022/09/02 05:13:34;;;;;;;3.30;3.10;;;23.90;34.30;;;;;;6183192;22;20465;-65
2022/09/02 05:16:01;;;;;;;3.33;3.23;;;23.90;34.20;;;;;;6218788;22;20427;-67
2022/09/02 05:18:27;;;;;;;3.47;3.27;;;23.90;34.20;;;;;;6214199;23;20535;-66
2022/09/02 05:20:54;;;;;;;3.10;3.00;;;23.90;34.20;;;;;;6182633;22;20477;-65
2022/09/02 05:23:20;;;;;;;3.13;3.03;;;23.90;34.20;;;;;;6197453;22;20443;-66
2022/09/02 05:25:46;;;;;;;3.63;3.43;;;23.90;34.20;;;;;;6200529;23;20434;-67
2022/09/02 05:28:12;;;;;;;3.30;3.20;;;23.90;34.20;;;;;;6197730;23;20205;-66
2022/09/02 05:30:40;;;;;;;3.23;3.10;;;23.90;34.10;;;;;;6228709;23;20211;-68
2022/09/02 05:33:07;;;;;;;3.20;3.10;;;23.90;34.10;;;;;;6223942;22;20411;-66
2022/09/02 05:35:33;;;;;;;3.90;3.70;;;23.90;34.20;;;;;;6201270;22;21457;-65
2022/09/02 05:37:59;;;;;;;3.17;3.07;;;23.90;34.20;;;;;;6199772;22;20459;-66
2022/09/02 05:40:25;;;;;;;3.87;3.57;;;23.90;34.20;;;;;;6226346;22;20403;-68
2022/09/02 05:42:51;;;;;;;3.63;3.33;;;23.90;34.10;;;;;;6228538;22;20189;-65
2022/09/02 05:45:18;;;;;;;3.83;2.83;;;23.90;34.20;;;;;;6220921;22;20193;-67
2022/09/02 05:47:44;;;;;;;3.57;3.37;;;23.90;34.20;;;;;;6198801;22;20201;-66
2022/09/02 05:50:09;;;;;;;7.40;3.13;;;23.90;34.20;;;;;;6224412;22;20462;-66
2022/09/02 05:52:35;;;;;;;6.93;3.07;;;23.90;34.20;;;;;;6228634;22;20410;-68
2022/09/02 05:55:02;;;;;;;3.00;2.80;;;23.90;34.20;;;;;;6227999;22;20635;-65
2022/09/02 05:57:28;;;;;;;2.83;2.50;;;24.00;34.20;;;;;;6228238;22;20419;-66
2022/09/02 05:59:55;;;;;;;2.73;2.53;;;23.90;34.20;;;;;;6206198;22;20437;-66
2022/09/02 06:02:23;;;;;;;3.37;2.60;;;24.00;34.20;;;;;;6229074;22;20250;-65
2022/09/02 06:04:52;;;;;;;2.53;2.10;;;23.90;34.10;;;;;;6217067;22;20504;-67
2022/09/02 06:07:22;;;;;;;2.93;2.83;;;24.00;34.10;;;;;;6182767;22;20414;-67
2022/09/02 06:09:48;;;;;;;2.00;1.90;;;23.90;34.00;;;;;;6226761;22;20438;-67
2022/09/02 06:12:17;;;;;;;2.97;2.50;;;24.00;34.00;;;;;;6199362;22;21057;-65
2022/09/02 06:14:43;;;;;;;2.00;1.90;;;24.00;33.90;;;;;;6232293;22;20426;-65
2022/09/02 06:17:09;;;;;;;2.37;2.27;;;23.90;33.80;;;;;;6230026;23;20487;-66
2022/09/02 06:19:35;;;;;;;2.10;2.00;;;23.90;33.70;;;;;;6219743;22;20201;-67
2022/09/02 06:22:02;;;;;;;2.13;2.03;;;24.00;33.80;;;;;;6214740;22;20509;-70
2022/09/02 06:24:29;;;;;;;2.70;2.13;;;23.90;33.60;;;;;;6204250;22;20468;-72
2022/09/02 06:26:58;;;;;;;1.93;1.83;;;24.00;33.70;;;;;;6225569;23;20430;-72
2022/09/02 06:29:25;;;;;;;2.03;1.93;;;24.00;33.60;;;;;;6211457;22;20424;-70
2022/09/02 06:31:52;;;;;;;1.87;1.77;;;24.00;33.60;;;;;;6168675;23;20414;-71
2022/09/02 06:34:21;;;;;;;2.27;2.17;;;24.00;33.50;;;;;;6226063;22;20493;-70
2022/09/02 06:36:49;;;;;;;3.40;2.10;;;24.00;33.40;;;;;;6227086;22;20407;-70
2022/09/02 06:39:17;;;;;;;1.80;1.70;;;24.00;33.30;;;;;;6219818;22;20756;-71
2022/09/02 06:41:45;;;;;;;1.73;1.63;;;24.00;33.30;;;;;;6186669;22;20410;-70
2022/09/02 06:44:14;;;;;;;2.03;1.93;;;24.00;33.20;;;;;;6224152;22;20414;-70
2022/09/02 06:46:43;;;;;;;2.03;1.83;;;24.00;33.20;;;;;;6206638;23;20454;-71
2022/09/02 06:49:09;;;;;;;1.77;1.60;;;24.00;33.10;;;;;;6168702;23;20420;-70
2022/09/02 06:51:40;;;;;;;1.80;1.70;;;24.00;33.10;;;;;;6195409;23;20653;-71
2022/09/02 06:54:09;;;;;;;2.70;1.50;;;24.00;33.00;;;;;;6201817;23;20514;-71
2022/09/02 06:56:36;;;;;;;2.53;2.13;;;24.00;33.00;;;;;;6202484;23;20423;-71
2022/09/02 06:59:03;;;;;;;1.80;1.70;;;24.00;33.00;;;;;;6190370;23;20431;-70
2022/09/02 07:01:32;;;;;;;2.00;1.90;;;24.00;33.00;;;;;;6195219;23;20424;-70
2022/09/02 07:06:45;;;;;;;12.93;2.47;;;24.00;32.90;;;;;;6199287;22;20503;-70
2022/09/02 07:09:13;;;;;;;4.33;2.03;;;24.00;32.90;;;;;;6199858;23;20411;-70
2022/09/02 07:11:39;;;;;;;2.27;1.70;;;24.00;33.00;;;;;;6211483;23;20901;-71
2022/09/02 07:14:05;;;;;;;2.23;1.90;;;24.00;32.90;;;;;;6221390;22;20442;-71
2022/09/02 07:16:41;;;;;;;2.30;2.20;;;24.00;32.90;;;;;;6208781;22;20222;-70
2022/09/02 07:19:07;;;;;;;4.10;2.43;;;24.00;32.90;;;;;;6202627;23;20748;-71
2022/09/02 07:21:33;;;;;;;1.70;1.60;;;24.00;32.90;;;;;;6234728;22;20410;-71
2022/09/02 07:24:00;;;;;;;3.33;1.90;;;24.00;33.00;;;;;;6227470;22;20419;-69
2022/09/02 07:26:27;;;;;;;1.87;1.77;;;24.00;33.00;;;;;;6235460;22;20267;-70
2022/09/02 07:28:53;;;;;;;1.80;1.70;;;24.00;33.00;;;;;;6234924;22;20426;-71
2022/09/02 07:31:19;;;;;;;1.83;1.73;;;24.00;33.00;;;;;;6234416;22;20475;-70
2022/09/02 07:33:46;;;;;;;2.70;1.93;;;24.00;33.10;;;;;;6230168;22;20881;-70
2022/09/02 07:36:13;;;;;;;2.03;1.83;;;24.00;33.10;;;;;;6236965;22;20216;-70
2022/09/02 07:38:41;;;;;;;1.70;1.60;;;24.00;33.10;;;;;;6191921;23;20498;-71
2022/09/02 07:41:09;;;;;;;1.80;1.70;;;24.00;33.10;;;;;;6174104;23;20423;-71
2022/09/02 07:43:36;;;;;;;2.23;2.13;;;24.00;33.10;;;;;;6188563;23;20891;-68
2022/09/02 07:46:04;;;;;;;2.50;1.63;;;24.00;33.10;;;;;;6197683;23;21146;-74
2022/09/02 07:48:30;;;;;;;2.67;1.80;;;24.00;33.10;;;;;;6168679;23;20799;-73
2022/09/02 07:50:57;;;;;;;1.73;1.63;;;24.00;32.90;;;;;;6196242;23;21160;-73
2022/09/02 07:53:25;;;;;;;3.73;1.80;;;24.00;32.60;;;;;;6201208;23;20479;-73
2022/09/02 07:55:50;;;;;;;2.07;1.97;;;24.10;32.50;;;;;;6202178;23;20450;-73
2022/09/02 07:58:19;;;;;;;1.97;1.77;;;24.10;32.30;;;;;;6187478;22;20848;-73
2022/09/02 08:00:46;;;;;;;2.00;1.90;;;24.10;32.00;;;;;;6203182;23;20739;-72
2022/09/02 08:03:12;;;;;;;1.80;1.70;;;24.10;32.20;;;;;;6202651;23;20975;-72
2022/09/02 08:05:39;;;;;;;2.43;2.03;;;24.10;32.30;;;;;;6203203;23;20422;-72
2022/09/02 08:08:06;;;;;;;1.90;1.80;;;24.10;32.50;;;;;;6237109;22;20855;-73
2022/09/02 08:10:33;;;;;;;1.80;1.70;;;24.10;33.40;;;;;;6229328;22;20450;-72
2022/09/02 08:13:00;;;;;;;1.60;1.50;;;24.20;32.80;;;;;;6206269;22;20963;-72
2022/09/02 08:15:27;;;;;;;2.17;2.07;;;24.20;32.80;;;;;;6205984;22;20553;-72
2022/09/02 08:17:54;;;;;;;1.60;1.50;;;24.20;33.00;;;;;;6229625;22;20861;-73
2022/09/02 08:20:20;;;;;;;1.87;1.77;;;24.20;33.10;;;;;;6233059;22;20921;-72
2022/09/02 08:22:46;;;;;;;1.97;1.87;;;24.20;33.10;;;;;;6238158;22;20909;-73
2022/09/02 08:25:12;;;;;;;2.97;2.03;;;24.30;33.30;;;;;;6230299;22;20445;-73
2022/09/02 08:27:40;;;;;;;1.97;1.87;;;24.30;33.30;;;;;;6191436;23;20229;-73
2022/09/02 08:30:08;;;;;;;2.07;1.97;;;24.30;33.40;;;;;;6202069;23;20415;-72
2022/09/02 08:32:35;;;;;;;1.80;1.70;;;24.30;33.60;;;;;;6164630;23;20606;-73
2022/09/02 08:35:04;;;;;;;1.90;1.80;;;24.30;33.60;;;;;;6203425;23;20973;-73
2022/09/02 08:37:31;;;;;;;1.73;1.63;;;24.30;33.70;;;;;;6209617;23;20418;-73
2022/09/02 08:39:57;;;;;;;2.10;2.00;;;24.30;33.80;;;;;;6229777;22;20415;-73
2022/09/02 08:42:36;;;;;;;2.00;1.90;;;24.30;33.80;;;;;;6204890;22;20419;-72
2022/09/02 08:45:26;;;;;;;2.63;2.00;;;24.30;33.80;;;;;;6217465;22;20421;-73
2022/09/02 08:48:15;;;;;;;2.50;1.83;;;24.30;33.90;;;;;;6207792;22;20591;-72
2022/09/02 08:50:44;;;;;;;1.80;1.70;;;24.30;33.90;;;;;;6173972;23;20420;-73
2022/09/02 08:53:15;;;;;;;1.80;1.70;;;24.30;34.00;;;;;;6206319;23;20415;-72
2022/09/02 08:55:49;;;;;;;1.77;1.67;;;24.30;34.10;;;;;;6234050;23;20406;-73
2022/09/02 08:58:21;;;;;;;2.00;1.90;;;24.30;34.10;;;;;;6227568;22;20477;-73
2022/09/02 09:01:06;;;;;;;1.80;1.70;;;24.30;34.20;;;;;;6232290;22;20413;-73
2022/09/02 09:03:52;;;;;;;1.90;1.80;;;24.30;34.30;;;;;;6235241;22;20414;-73
2022/09/02 09:06:41;;;;;;;1.80;1.70;;;24.30;34.60;;;;;;6189232;23;20402;-73
2022/09/02 09:09:51;;;;;;;2.43;2.33;;;24.30;34.30;;;;;;6201680;23;20412;-73
2022/09/02 09:12:30;;;;;;;1.90;1.80;;;24.30;34.50;;;;;;6102262;23;20762;-73
2022/09/02 09:15:07;;;;;;;1.80;1.70;;;24.20;34.40;;;;;;6177467;23;20499;-73
2022/09/02 09:17:59;;;;;;;2.10;2.00;;;24.20;34.50;;;;;;6173031;23;20919;-73
2022/09/02 09:20:33;;;;;;;2.03;1.93;;;24.20;34.50;;;;;;6160498;23;20420;-72
2022/09/02 09:23:14;;;;;;;2.10;2.00;;;24.20;34.60;;;;;;6147610;23;20487;-73
2022/09/02 09:25:43;;;;;;;2.00;1.90;;;24.20;34.60;;;;;;6149922;23;20420;-73
2022/09/02 09:28:09;;;;;;;1.90;1.80;;;24.20;34.70;;;;;;6157731;23;20420;-73
2022/09/02 09:30:35;;;;;;;2.20;2.00;;;24.20;34.70;;;;;;6148321;23;20409;-73
2022/09/02 09:33:01;;;;;;;2.00;1.90;;;24.20;34.80;;;;;;6156955;23;20595;-71
2022/09/02 09:35:52;;;;;;;1.80;1.70;;;24.20;34.80;;;;;;6149350;23;20230;-71
2022/09/02 09:38:31;;;;;;;2.10;2.00;;;24.20;34.80;;;;;;6175208;23;20429;-72
2022/09/02 09:41:19;;;;;;;2.57;1.80;;;24.20;34.80;;;;;;6171218;23;20425;-71
2022/09/02 09:43:45;;;;;;;2.10;2.00;;;24.20;34.80;;;;;;6174756;23;20895;-71
2022/09/02 09:46:40;;;;;;;2.10;1.90;;;24.20;35.00;;;;;;6157970;23;20412;-72
2022/09/02 09:49:06;;;;;;;2.10;2.00;;;24.20;34.90;;;;;;6114104;23;20199;-72
2022/09/02 09:51:32;;;;;;;1.90;1.80;;;24.20;35.00;;;;;;6146387;23;20417;-72
2022/09/02 09:54:14;;;;;;;2.27;2.17;;;24.20;35.10;;;;;;6154212;23;20515;-72
2022/09/02 09:56:40;;;;;;;2.10;2.00;;;24.20;35.00;;;;;;6178265;23;20800;-72
2022/09/02 09:59:08;;;;;;;2.17;2.07;;;24.30;35.20;;;;;;6173081;23;20421;-72
2022/09/02 10:01:34;;;;;;;2.00;1.90;;;24.30;35.10;;;;;;6179213;23;20641;-73
2022/09/02 10:04:09;;;;;;;2.20;2.10;;;24.30;35.20;;;;;;6171954;23;20896;-74
2022/09/02 10:06:36;;;;;;;2.40;2.30;;;24.20;35.10;;;;;;6169047;23;20902;-75
2022/09/02 10:09:03;;;;;;;2.37;2.27;;;24.30;35.30;;;;;;6168575;23;20427;-71
2022/09/02 10:11:34;;;;;;;1.80;1.70;;;24.30;35.20;;;;;;6211136;22;20477;-73
2022/09/02 10:14:09;;;;;;;1.90;1.80;;;24.30;34.90;;;;;;6230646;22;20426;-73
2022/09/02 10:16:46;;;;;;;2.30;2.20;;;24.40;34.70;;;;;;6236310;22;20413;-73
2022/09/02 10:19:33;;;;;;;2.60;2.07;;;24.40;34.30;;;;;;6237815;22;20409;-72
2022/09/02 10:22:17;;;;;;;2.10;2.00;;;24.40;34.40;;;;;;6224391;22;20426;-73
2022/09/02 10:25:15;;;;;;;2.30;2.20;;;24.40;34.80;;;;;;6222614;22;20870;-72
2022/09/02 10:28:02;;;;;;;2.07;1.97;;;24.50;34.50;;;;;;6209409;23;20402;-72
2022/09/02 10:30:48;;;;;;;2.17;2.07;;;24.50;34.60;;;;;;6219908;22;20867;-72
2022/09/02 10:33:30;;;;;;;1.97;1.87;;;24.50;34.60;;;;;;6204967;23;20400;-72
2022/09/02 10:36:18;;;;;;;2.20;2.10;;;24.40;34.60;;;;;;6196231;23;20917;-73
2022/09/02 10:38:46;;;;;;;1.90;1.80;;;24.50;34.70;;;;;;6193572;23;20403;-72
2022/09/02 10:41:30;;;;;;;2.20;2.00;;;24.40;34.70;;;;;;6214961;22;20474;-72
2022/09/02 10:44:20;;;;;;;2.00;1.90;;;24.40;34.70;;;;;;6203404;23;20407;-72
2022/09/02 10:47:02;;;;;;;2.00;1.90;;;24.40;34.80;;;;;;6225464;22;21145;-73
2022/09/02 10:49:45;;;;;;;2.70;1.63;;;24.40;35.70;;;;;;6232883;22;20410;-73
2022/09/02 10:52:37;;;;;;;1.90;1.80;;;24.40;34.80;;;;;;6235041;23;20748;-72
2022/09/02 10:55:11;;;;;;;2.10;2.00;;;24.40;34.90;;;;;;6223622;22;23236;-72
2022/09/02 10:58:02;;;;;;;2.10;2.00;;;24.40;35.00;;;;;;6203327;23;20420;-73
2022/09/02 11:00:30;;;;;;;1.77;1.67;;;24.40;35.00;;;;;;6225978;23;20945;-72
2022/09/02 11:03:16;;;;;;;1.70;1.60;;;24.40;35.00;;;;;;6208338;22;20534;-71
2022/09/02 11:05:46;;;;;;;1.90;1.80;;;24.40;35.00;;;;;;6197702;23;20422;-71
2022/09/02 11:08:37;;;;;;;4.20;1.80;;;24.40;34.60;;;;;;6214622;22;20417;-70
2022/09/02 11:11:12;;;;;;;2.37;2.27;;;24.40;34.10;;;;;;6229041;22;20469;-70
2022/09/02 11:14:04;;;;;;;2.20;2.00;;;24.40;34.10;;;;;;6202003;22;20818;-70
2022/09/02 11:16:40;;;;;;;1.70;1.60;;;24.40;34.20;;;;;;6209663;23;20449;-71
2022/09/02 11:19:26;;;;;;;2.10;2.00;;;24.30;34.20;;;;;;6212609;22;20414;-70
2022/09/02 11:22:23;;;;;;;1.87;1.77;;;24.30;34.30;;;;;;6229225;22;20905;-71
2022/09/02 11:25:02;;;;;;;1.80;1.70;;;24.30;34.40;;;;;;6222625;22;20902;-71
2022/09/02 11:27:28;;;;;;;1.80;1.70;;;24.30;34.60;;;;;;6206337;22;20773;-70
2022/09/02 11:30:13;;;;;;;1.87;1.77;;;24.30;34.70;;;;;;6233996;22;20419;-69
2022/09/02 11:32:51;;;;;;;1.97;1.87;;;24.30;34.70;;;;;;6234016;23;21179;-69
2022/09/02 11:35:26;;;;;;;2.10;2.00;;;24.30;34.80;;;;;;6189776;22;20784;-70
2022/09/02 11:37:56;;;;;;;3.57;1.73;;;24.30;34.80;;;;;;6198793;23;20419;-70
2022/09/02 11:41:23;;;;;;;1.90;1.80;;;24.30;34.90;;;;;;6204967;23;20427;-69
2022/09/02 11:43:59;;;;;;;1.90;1.77;;;24.30;34.90;;;;;;6056411;23;20416;-73
2022/09/02 11:46:45;;;;;;;2.00;1.90;;;24.30;34.90;;;;;;6176174;23;20824;-70
2022/09/02 11:49:31;;;;;;;1.90;1.80;;;24.30;35.00;;;;;;6222473;22;20395;-70
2022/09/02 11:52:07;;;;;;;1.67;1.57;;;24.30;35.00;;;;;;6228514;22;21031;-67
2022/09/02 11:54:41;;;;;;;2.00;1.90;;;24.30;35.00;;;;;;6234572;22;20426;-68
2022/09/02 11:57:12;;;;;;;1.80;1.70;;;24.30;35.00;;;;;;6203001;23;20719;-71
2022/09/02 11:59:50;;;;;;;1.60;1.50;;;24.30;35.00;;;;;;6231316;22;20418;-70
2022/09/02 12:02:44;;;;;;;1.77;1.67;;;24.30;35.10;;;;;;6225445;22;20421;-70
2022/09/02 12:05:31;;;;;;;1.63;1.53;;;24.30;35.10;;;;;;6234191;22;20457;-71
2022/09/02 12:07:59;;;;;;;1.70;1.60;;;24.30;35.10;;;;;;6168107;23;20416;-71
2022/09/02 12:10:47;;;;;;;1.77;1.67;;;24.30;35.20;;;;;;6205972;22;20897;-71
2022/09/02 12:13:24;;;;;;;1.67;1.57;;;24.30;35.20;;;;;;6222078;22;20481;-72
2022/09/02 12:16:20;;;;;;;1.70;1.60;;;24.30;35.30;;;;;;6208120;22;20424;-72
2022/09/02 12:19:09;;;;;;;1.80;1.70;;;24.30;35.20;;;;;;6187586;22;20446;-72
2022/09/02 12:21:55;;;;;;;1.97;1.87;;;24.30;35.20;;;;;;6232466;22;20403;-71
2022/09/02 12:24:22;;;;;;;1.80;1.70;;;24.30;35.30;;;;;;6195258;23;20419;-70
2022/09/02 12:26:51;;;;;;;1.70;1.60;;;24.30;35.30;;;;;;6199734;23;20416;-70
2022/09/02 12:29:23;;;;;;;1.90;1.80;;;24.30;35.30;;;;;;6200425;23;20404;-70
2022/09/02 12:31:51;;;;;;;1.90;1.80;;;24.30;35.20;;;;;;6199171;23;20418;-71
2022/09/02 12:34:19;;;;;;;1.70;1.60;;;24.30;35.30;;;;;;6199637;23;20443;-71
2022/09/02 12:37:01;;;;;;;1.80;1.70;;;24.40;35.30;;;;;;6200624;23;20751;-71
2022/09/02 12:39:27;;;;;;;3.43;1.77;;;24.40;34.90;;;;;;6196534;23;20423;-72
2022/09/02 12:41:59;;;;;;;1.70;1.60;;;24.40;34.90;;;;;;6203579;23;20754;-72
2022/09/02 12:44:31;;;;;;;26.87;2.60;;;24.40;34.90;;;;;;6204449;23;20197;-71
2022/09/02 12:47:18;;;;;;;10.57;2.80;;;24.40;34.50;;;;;;6191246;23;20427;-70
2022/09/02 12:50:03;;;;;;;8.23;2.40;;;24.40;34.10;;;;;;6225447;22;20419;-71
2022/09/02 12:52:34;;;;;;;2.97;1.67;;;24.40;33.60;;;;;;6194165;22;20403;-72
2022/09/02 12:55:13;;;;;;;3.50;1.90;;;24.40;33.30;;;;;;6203025;23;20430;-71
2022/09/02 12:57:44;;;;;;;2.80;1.70;;;24.40;32.90;;;;;;6160373;23;20751;-73
2022/09/02 13:00:16;;;;;;;1.97;1.60;;;24.40;33.10;;;;;;6200417;23;20890;-71
2022/09/02 13:03:09;;;;;;;3.73;1.80;;;24.40;31.90;;;;;;6185747;23;20426;-71
2022/09/02 13:06:08;;;;;;;2.00;1.90;;;24.30;31.80;;;;;;6199507;23;20408;-73
2022/09/02 13:08:53;;;;;;;20.03;2.60;;;24.30;31.80;;;;;;6177378;23;20420;-75